Time;durP1;ratioP1;P1;durP2;ratioP2;P2;SDS_P1;SDS_P2;PMS_P1;PMS_P2;Temp;Humidity;BMP_temperature;BMP_pressure;BME280_temperature;BME280_humidity;BME280_pressure;Samples;Min_cycle;Max_cycle;Signal;HPM_P1;HPM_P2
2022/05/16 00:02:23;;;;;;;4.97;3.27;;;;;;;14.99;72.44;99959.28;5036100;28;20229;-58
2022/05/16 00:04:49;;;;;;;4.80;3.07;;;;;;;14.97;72.95;99953.38;5031271;28;20231;-58
2022/05/16 00:07:16;;;;;;;4.40;3.17;;;;;;;14.87;73.41;99955.00;5045883;28;20188;-58
2022/05/16 00:09:42;;;;;;;6.40;2.70;;;;;;;14.85;73.73;99955.94;5046011;28;20209;-58
2022/05/16 00:12:09;;;;;;;4.00;2.93;;;;;;;14.86;73.57;99956.78;5052940;28;20232;-58
2022/05/16 00:14:35;;;;;;;3.80;2.97;;;;;;;14.85;73.90;99952.53;5063003;28;20199;-57
2022/05/16 00:17:00;;;;;;;4.30;3.30;;;;;;;14.79;74.55;99953.00;5048863;28;20240;-58
2022/05/16 00:19:26;;;;;;;3.17;2.50;;;;;;;14.74;74.56;99955.13;5050648;28;20189;-62
2022/05/16 00:21:51;;;;;;;3.47;3.10;;;;;;;14.74;74.37;99942.97;5054474;28;20586;-57
2022/05/16 00:24:18;;;;;;;3.23;2.90;;;;;;;14.69;74.99;99942.50;5052380;28;20185;-58
2022/05/16 00:26:44;;;;;;;5.90;3.50;;;;;;;14.73;75.28;99946.50;5048975;28;20276;-57
2022/05/16 00:29:09;;;;;;;4.10;3.17;;;;;;;14.70;75.25;99951.94;5050828;28;20327;-57
2022/05/16 00:31:34;;;;;;;5.60;3.13;;;;;;;14.65;75.33;99949.66;5052405;28;20266;-58
2022/05/16 00:34:00;;;;;;;5.23;2.90;;;;;;;14.69;75.50;99947.69;5054465;28;20188;-58
2022/05/16 00:36:25;;;;;;;5.77;3.40;;;;;;;14.69;75.39;99940.72;5050080;28;20170;-58
2022/05/16 00:38:53;;;;;;;6.20;3.07;;;;;;;14.73;75.38;99937.94;5051081;28;20289;-58
2022/05/16 00:41:19;;;;;;;5.20;3.20;;;;;;;14.74;75.13;99937.00;5050591;28;20719;-58
2022/05/16 00:43:55;;;;;;;3.67;2.83;;;;;;;14.64;75.59;99937.63;5065825;28;20189;-58
2022/05/16 00:46:22;;;;;;;5.90;3.00;;;;;;;14.60;76.29;99931.03;5050338;28;20181;-58
2022/05/16 00:48:48;;;;;;;7.30;3.40;;;;;;;14.64;76.68;99935.03;5049128;28;20199;-59
2022/05/16 00:51:18;;;;;;;5.20;3.00;;;;;;;14.60;76.51;99937.97;5051519;28;20220;-60
2022/05/16 00:53:44;;;;;;;7.60;3.37;;;;;;;14.58;76.95;99932.09;5046353;28;20185;-58
2022/05/16 00:56:10;;;;;;;4.53;3.00;;;;;;;14.56;77.17;99933.97;5036064;28;20173;-59
2022/05/16 00:58:40;;;;;;;5.43;3.13;;;;;;;14.50;77.43;99930.91;5054265;28;20250;-58
2022/05/16 01:04:47;;;;;;;5.27;2.93;;;;;;;14.53;78.19;99928.06;5071323;28;20223;-58
2022/05/16 01:06:38;;;;;;;4.13;3.27;;;;;;;14.50;77.04;99927.50;5053945;28;20184;-59
2022/05/16 01:09:04;;;;;;;4.50;3.00;;;;;;;14.63;76.60;99930.00;5069497;28;20197;-58
2022/05/16 01:11:29;;;;;;;3.40;2.57;;;;;;;14.63;75.33;99919.63;5074023;28;20219;-57
2022/05/16 01:13:54;;;;;;;4.70;3.13;;;;;;;14.66;75.86;99925.44;5062321;28;20320;-57
2022/05/16 01:16:22;;;;;;;4.77;2.83;;;;;;;14.64;76.38;99929.06;5053249;28;20251;-57
2022/05/16 01:18:47;;;;;;;5.40;3.17;;;;;;;14.68;76.39;99918.38;5053573;28;20258;-58
2022/05/16 01:21:26;;;;;;;5.67;3.60;;;;;;;14.56;76.10;99914.06;5052424;28;20649;-58
2022/05/16 01:23:57;;;;;;;6.13;3.00;;;;;;;14.51;76.99;99917.03;5069227;28;20774;-58
2022/05/16 01:26:25;;;;;;;3.27;2.97;;;;;;;14.46;78.25;99918.28;5051874;28;21047;-59
2022/05/16 01:28:51;;;;;;;6.27;3.07;;;;;;;14.48;78.22;99913.84;5053681;28;20212;-58
2022/05/16 01:31:16;;;;;;;5.43;3.30;;;;;;;14.48;77.77;99919.81;5051689;28;20216;-58
2022/05/16 01:33:42;;;;;;;4.77;3.37;;;;;;;14.36;77.31;99920.72;5059374;28;20185;-60
2022/05/16 01:36:07;;;;;;;3.80;3.17;;;;;;;14.35;77.27;99924.25;5053154;28;20640;-59
2022/05/16 01:38:32;;;;;;;4.37;2.93;;;;;;;14.34;76.81;99928.59;5053561;28;20723;-58
2022/05/16 01:41:02;;;;;;;5.70;3.87;;;;;;;14.32;77.59;99935.66;5050233;28;20612;-58
2022/05/16 01:43:34;;;;;;;2.93;2.57;;;;;;;14.39;76.42;99935.19;5061129;28;20175;-59
2022/05/16 01:46:00;;;;;;;4.40;2.93;;;;;;;14.47;76.00;99935.47;5053227;28;20188;-58
2022/05/16 01:48:29;;;;;;;4.43;2.90;;;;;;;14.53;75.22;99935.81;5053178;28;20202;-57
2022/05/16 01:50:59;;;;;;;5.73;2.90;;;;;;;14.55;73.93;99940.06;5057420;28;20234;-57
2022/05/16 01:53:25;;;;;;;3.90;3.00;;;;;;;14.57;74.36;99936.44;5040651;28;20181;-58
2022/05/16 01:55:50;;;;;;;5.37;3.03;;;;;;;14.58;74.68;99940.69;5033213;28;20249;-58
2022/05/16 01:58:15;;;;;;;7.83;3.60;;;;;;;14.65;74.78;99943.69;5032812;28;20192;-57
2022/05/16 02:00:40;;;;;;;4.47;3.30;;;;;;;14.65;74.91;99951.44;5033300;28;20239;-57
2022/05/16 02:03:06;;;;;;;4.17;3.37;;;;;;;14.65;75.59;99949.66;5054304;28;20270;-57
2022/05/16 02:05:33;;;;;;;3.60;2.70;;;;;;;14.57;75.53;99939.03;5048177;28;20648;-58
2022/05/16 02:07:58;;;;;;;4.77;2.97;;;;;;;14.73;74.52;99938.75;5030917;28;20174;-58
2022/05/16 02:10:25;;;;;;;4.10;3.20;;;;;;;14.83;75.20;99934.53;5028466;28;20224;-58
2022/05/16 02:12:52;;;;;;;4.47;2.40;;;;;;;14.91;73.98;99922.75;5047533;28;20224;-58
2022/05/16 02:15:22;;;;;;;8.37;3.20;;;;;;;14.98;73.15;99917.03;5051340;28;20287;-58
2022/05/16 02:17:48;;;;;;;6.57;3.27;;;;;;;15.01;73.46;99924.53;5050741;28;20225;-58
2022/05/16 02:20:14;;;;;;;3.67;2.80;;;;;;;15.09;73.39;99920.56;5043729;28;20647;-58
2022/05/16 02:25:24;;;;;;;4.10;3.00;;;;;;;15.14;72.59;99923.59;5052874;28;20243;-59
2022/05/16 02:27:50;;;;;;;3.07;2.53;;;;;;;15.20;71.70;99909.38;5050389;28;20173;-58
2022/05/16 02:30:16;;;;;;;5.33;2.47;;;;;;;15.17;72.07;99908.66;5042548;28;20181;-58
2022/05/16 02:32:42;;;;;;;4.57;3.20;;;;;;;15.15;71.90;99909.72;5065668;28;20288;-59
2022/05/16 02:35:07;;;;;;;6.20;2.83;;;;;;;15.14;72.29;99908.91;5052197;28;20252;-59
2022/05/16 02:37:33;;;;;;;2.57;2.33;;;;;;;15.14;72.52;99898.53;5051717;28;20188;-58
2022/05/16 02:39:58;;;;;;;4.00;2.60;;;;;;;14.93;73.28;99900.97;5052810;28;20207;-59
2022/05/16 02:42:24;;;;;;;4.50;2.97;;;;;;;14.93;74.39;99913.13;5057666;28;20236;-58
2022/05/16 02:44:52;;;;;;;3.33;3.00;;;;;;;14.99;73.94;99908.28;5052150;28;20173;-58
2022/05/16 02:47:20;;;;;;;5.97;3.37;;;;;;;15.09;73.32;99903.22;5048243;28;20199;-59
2022/05/16 02:49:45;;;;;;;6.17;2.93;;;;;;;15.08;73.01;99899.00;5055770;28;20723;-58
2022/05/16 02:52:11;;;;;;;4.70;3.00;;;;;;;15.12;73.32;99894.41;5054074;28;20363;-58
2022/05/16 02:54:37;;;;;;;4.23;3.00;;;;;;;14.90;74.64;99892.66;5047469;28;20228;-59
2022/05/16 02:57:03;;;;;;;8.30;3.20;;;;;;;14.83;76.17;99902.63;5031502;28;20182;-60
2022/05/16 02:59:32;;;;;;;3.70;2.87;;;;;;;14.80;75.51;99895.09;5047089;28;20208;-58
2022/05/16 03:02:02;;;;;;;2.83;2.53;;;;;;;14.84;75.06;99899.09;5045804;28;20248;-59
2022/05/16 03:04:28;;;;;;;3.60;2.67;;;;;;;14.95;75.27;99887.94;5032127;28;20222;-58
2022/05/16 03:06:54;;;;;;;6.73;3.10;;;;;;;14.82;76.00;99886.28;5031593;28;20337;-59
2022/05/16 03:09:21;;;;;;;4.73;3.03;;;;;;;14.66;76.84;99893.53;5031517;28;20201;-59
2022/05/16 03:11:46;;;;;;;8.07;3.30;;;;;;;14.56;78.01;99889.97;5054204;28;20232;-58
2022/05/16 03:14:12;;;;;;;3.17;2.77;;;;;;;14.68;77.62;99894.25;5048415;28;20710;-58
2022/05/16 03:16:38;;;;;;;4.43;2.87;;;;;;;14.77;76.82;99897.91;5052711;28;20249;-59
2022/05/16 03:19:04;;;;;;;4.27;2.70;;;;;;;14.85;75.76;99898.97;5039052;28;20215;-58
2022/05/16 03:21:30;;;;;;;7.20;3.13;;;;;;;14.95;74.88;99898.28;5039621;28;20334;-57
2022/05/16 03:23:56;;;;;;;4.07;2.90;;;;;;;14.92;73.54;99895.94;5051277;28;20174;-57
2022/05/16 03:26:21;;;;;;;4.10;2.80;;;;;;;14.85;73.58;99898.16;5049704;28;20178;-57
2022/05/16 03:28:46;;;;;;;4.00;3.00;;;;;;;14.93;73.77;99903.56;5051422;28;20215;-57
2022/05/16 03:31:12;;;;;;;5.23;2.93;;;;;;;14.94;72.91;99900.03;5019783;28;20600;-57
2022/05/16 03:33:37;;;;;;;5.23;2.87;;;;;;;15.05;73.43;99899.22;5042158;28;20185;-58
2022/05/16 03:36:03;;;;;;;7.00;2.90;;;;;;;15.20;72.75;99893.81;5050847;28;20213;-60
2022/05/16 03:41:12;;;;;;;4.43;2.73;;;;;;;15.03;72.49;99902.88;5050208;28;20273;-60
2022/05/16 03:43:39;;;;;;;10.60;3.83;;;;;;;15.29;72.91;99904.31;5057531;28;20177;-58
2022/05/16 03:46:06;;;;;;;3.77;2.80;;;;;;;15.39;71.44;99906.16;5054571;28;20185;-58
2022/05/16 03:48:32;;;;;;;4.07;2.53;;;;;;;15.54;70.88;99896.38;5032062;28;20684;-58
2022/05/16 03:50:59;;;;;;;6.53;2.80;;;;;;;15.53;67.63;99892.13;5047345;28;20236;-59
2022/05/16 03:53:24;;;;;;;4.67;2.70;;;;;;;15.72;67.72;99894.91;5038798;28;20228;-58
2022/05/16 03:55:49;;;;;;;4.80;2.70;;;;;;;15.84;67.74;99894.91;5031219;28;20618;-58
2022/05/16 03:58:15;;;;;;;7.07;2.80;;;;;;;15.90;68.98;99897.84;5030829;28;20174;-57
2022/05/16 04:00:40;;;;;;;7.30;3.40;;;;;;;16.01;68.95;99898.75;5031054;28;20554;-58
2022/05/16 04:03:06;;;;;;;5.57;3.70;;;;;;;15.89;69.42;99905.72;5053154;28;20253;-58
2022/05/16 04:05:32;;;;;;;5.07;3.10;;;;;;;15.91;69.42;99907.25;5031112;28;20292;-58
2022/05/16 04:07:58;;;;;;;5.57;3.03;;;;;;;15.91;68.73;99891.69;5045963;28;20186;-59
2022/05/16 04:10:24;;;;;;;3.67;2.90;;;;;;;15.99;68.17;99914.44;5026752;28;20235;-59
2022/05/16 04:12:49;;;;;;;5.27;3.50;;;;;;;15.97;68.16;99909.34;5045197;28;20188;-58
2022/05/16 04:15:15;;;;;;;5.53;3.20;;;;;;;15.97;67.69;99909.34;5050850;28;20556;-58
2022/05/16 04:17:41;;;;;;;6.23;3.50;;;;;;;15.90;67.54;99902.19;5049856;28;20218;-58
2022/05/16 04:20:07;;;;;;;7.97;2.90;;;;;;;16.08;66.05;99897.31;5039886;28;20636;-56
2022/05/16 04:22:33;;;;;;;6.53;3.20;;;;;;;16.20;64.85;99891.13;5065169;28;20198;-57
2022/05/16 04:24:59;;;;;;;6.30;3.07;;;;;;;16.19;64.51;99886.88;5030844;28;20182;-57
2022/05/16 04:27:24;;;;;;;7.17;2.80;;;;;;;16.21;63.53;99897.97;5053676;28;20656;-56
2022/05/16 04:29:50;;;;;;;4.83;3.00;;;;;;;16.29;63.16;99902.53;5054213;28;20185;-57
2022/05/16 04:32:15;;;;;;;5.90;3.27;;;;;;;16.50;62.41;99904.31;5061579;28;20322;-56
2022/05/16 04:34:40;;;;;;;5.13;3.33;;;;;;;16.68;60.78;99896.75;5055004;28;20187;-56
2022/05/16 04:37:06;;;;;;;5.83;2.50;;;;;;;16.91;61.21;99900.84;5054333;28;20174;-56
2022/05/16 04:39:31;;;;;;;4.53;2.40;;;;;;;16.78;60.79;99902.81;5054659;28;20178;-56
2022/05/16 04:44:40;;;;;;;7.70;3.10;;;;;;;16.97;60.08;99909.94;5043460;28;20185;-56
2022/05/16 04:47:08;;;;;;;6.40;3.17;;;;;;;17.08;60.01;99909.03;5032908;28;20182;-56
2022/05/16 04:49:35;;;;;;;6.43;3.33;;;;;;;17.16;60.11;99916.97;5034459;28;20206;-57
2022/05/16 04:52:00;;;;;;;8.57;3.37;;;;;;;17.23;58.99;99910.28;5042581;28;20263;-56
2022/05/16 04:54:26;;;;;;;5.20;3.07;;;;;;;17.20;58.07;99905.34;5034850;28;20175;-56
2022/05/16 04:56:51;;;;;;;8.13;3.30;;;;;;;17.41;58.06;99910.50;5033843;28;20221;-57
2022/05/16 04:59:19;;;;;;;4.87;2.77;;;;;;;17.74;56.95;99915.50;5049955;28;20288;-57
2022/05/16 05:01:45;;;;;;;8.90;3.20;;;;;;;18.12;56.39;99918.28;5053601;28;20255;-57
2022/05/16 05:04:10;;;;;;;13.60;2.93;;;;;;;18.16;54.09;99924.84;5048895;28;20294;-57
2022/05/16 05:06:35;;;;;;;6.30;3.33;;;;;;;18.48;55.53;99932.38;5039305;28;20213;-57
2022/05/16 05:09:01;;;;;;;5.23;2.50;;;;;;;18.68;54.10;99930.56;5034090;28;20212;-56
2022/05/16 05:16:54;;;;;;;7.27;3.50;;;;;;;18.89;52.45;99942.59;5053811;28;20627;-56
2022/05/16 05:19:20;;;;;;;8.00;2.93;;;;;;;18.90;51.85;99946.81;5053730;28;20178;-56
2022/05/16 05:21:45;;;;;;;9.70;3.07;;;;;;;18.80;52.81;99956.44;5056780;28;20503;-56
2022/05/16 05:24:10;;;;;;;8.53;3.87;;;;;;;18.38;52.38;99941.97;5055912;28;20269;-56
2022/05/16 05:26:36;;;;;;;4.07;3.13;;;;;;;18.42;53.13;99948.56;5053635;28;20173;-56
2022/05/16 05:29:03;;;;;;;8.63;3.67;;;;;;;18.60;53.93;99940.03;5053751;28;20276;-56
2022/05/16 05:31:28;;;;;;;4.93;2.97;;;;;;;18.48;53.94;99953.22;5045268;28;20236;-57
2022/05/16 05:33:55;;;;;;;10.70;3.40;;;;;;;18.52;54.38;99951.16;5057939;28;20314;-57
2022/05/16 05:36:21;;;;;;;9.07;3.10;;;;;;;18.80;53.40;99938.22;5050922;28;20188;-57
2022/05/16 05:38:51;;;;;;;7.47;3.17;;;;;;;18.84;52.99;99947.38;5051595;28;20240;-56
2022/05/16 05:41:17;;;;;;;8.50;3.57;;;;;;;18.80;52.81;99954.66;5033301;28;20246;-57
2022/05/16 05:43:42;;;;;;;8.77;3.53;;;;;;;18.61;53.84;99949.50;5045726;28;20655;-57
2022/05/16 05:46:08;;;;;;;8.00;3.33;;;;;;;18.77;53.37;99952.34;5032851;28;20170;-57
2022/05/16 05:48:33;;;;;;;5.77;3.40;;;;;;;18.62;55.76;99957.19;5033035;28;20204;-58
2022/05/16 05:50:59;;;;;;;10.17;3.70;;;;;;;18.90;55.65;99959.03;5037865;28;20745;-57
2022/05/16 05:53:24;;;;;;;7.33;3.50;;;;;;;18.99;53.33;99955.59;5050305;28;20186;-57
2022/05/16 05:55:50;;;;;;;8.00;3.63;;;;;;;19.05;53.23;99959.44;5032952;28;20181;-57
2022/05/16 05:58:16;;;;;;;9.70;3.87;;;;;;;19.00;52.56;99963.31;5032834;28;20185;-57
2022/05/16 06:00:43;;;;;;;6.33;3.40;;;;;;;18.81;52.26;99969.34;5033638;28;20699;-57
2022/05/16 06:03:08;;;;;;;7.90;4.27;;;;;;;18.61;53.26;99965.13;5042770;28;20190;-58
2022/05/16 06:05:34;;;;;;;5.97;3.50;;;;;;;18.51;53.33;99970.34;5032832;28;20185;-56
2022/05/16 06:08:00;;;;;;;8.13;3.33;;;;;;;18.53;54.53;99965.81;5048006;28;20185;-56
2022/05/16 06:10:25;;;;;;;5.70;3.13;;;;;;;18.55;53.57;99969.09;5028664;28;20224;-56
2022/05/16 06:12:51;;;;;;;6.37;3.40;;;;;;;18.61;54.41;99972.94;5060690;28;20196;-56
2022/05/16 06:15:17;;;;;;;12.97;3.83;;;;;;;18.85;53.72;99975.09;5052646;28;20240;-56
2022/05/16 06:17:43;;;;;;;9.53;3.23;;;;;;;18.99;53.29;99981.66;5066928;28;20293;-56
2022/05/16 06:20:10;;;;;;;7.03;3.27;;;;;;;19.17;52.65;99986.97;5043114;28;20280;-56
2022/05/16 06:22:36;;;;;;;7.20;3.80;;;;;;;19.37;52.66;99973.88;5066868;28;20185;-56
2022/05/16 06:27:51;;;;;;;11.23;3.40;;;;;;;19.20;52.17;99981.47;5051959;28;20609;-55
2022/05/16 06:30:19;;;;;;;8.50;3.07;;;;;;;19.10;51.91;99978.91;5043780;28;20288;-55
2022/05/16 06:32:45;;;;;;;10.67;3.70;;;;;;;19.35;51.63;99989.66;5067435;28;20232;-56
2022/05/16 06:35:10;;;;;;;10.53;4.10;;;;;;;19.42;51.44;99987.28;5052539;28;20170;-57
2022/05/16 06:37:36;;;;;;;8.20;3.77;;;;;;;19.46;52.55;99986.88;5048444;28;20656;-57
2022/05/16 06:40:01;;;;;;;5.40;3.20;;;;;;;19.88;51.16;99988.16;5036676;28;20186;-58
2022/05/16 06:42:26;;;;;;;6.20;3.17;;;;;;;20.07;49.08;99986.41;5036358;28;20287;-58
2022/05/16 06:44:52;;;;;;;9.97;4.20;;;;;;;19.88;49.43;99985.56;5031494;28;20174;-58
2022/05/16 06:47:18;;;;;;;5.03;3.20;;;;;;;19.84;49.72;99992.06;5062678;28;20186;-59
2022/05/16 06:49:43;;;;;;;7.30;3.30;;;;;;;20.12;49.49;99982.38;5031178;28;20226;-58
2022/05/16 06:52:08;;;;;;;9.57;3.30;;;;;;;20.31;49.00;99994.47;5053095;28;20220;-58
2022/05/16 06:54:34;;;;;;;10.33;3.27;;;;;;;20.93;47.52;99993.66;5031440;28;20546;-58
2022/05/16 06:56:59;;;;;;;5.67;3.20;;;;;;;21.42;45.71;99994.91;5030984;28;20182;-57
2022/05/16 06:59:24;;;;;;;5.80;2.93;;;;;;;21.25;45.56;100000.06;5030127;28;20625;-55
2022/05/16 07:01:49;;;;;;;6.70;3.00;;;;;;;21.23;45.22;100004.63;5006348;28;20210;-56
2022/05/16 07:04:15;;;;;;;7.17;3.90;;;;;;;21.45;44.71;100000.63;5013216;28;20270;-56
2022/05/16 07:06:40;;;;;;;7.03;3.00;;;;;;;21.57;45.47;100005.63;5011091;28;20183;-57
2022/05/16 07:09:05;;;;;;;9.47;3.87;;;;;;;21.08;47.08;100014.84;5011213;28;20551;-56
2022/05/16 07:11:32;;;;;;;9.10;2.90;;;;;;;20.94;46.01;100002.34;5036541;28;20374;-56
2022/05/16 07:13:58;;;;;;;12.13;7.20;;;;;;;21.11;45.97;100001.47;5050395;28;20197;-56
2022/05/16 07:16:24;;;;;;;7.23;3.23;;;;;;;20.59;46.84;100010.06;5051699;28;20234;-57
2022/05/16 07:18:49;;;;;;;4.93;2.70;;;;;;;20.25;48.25;100015.97;5047579;28;20186;-57
2022/05/16 07:21:14;;;;;;;5.33;2.97;;;;;;;19.87;49.56;100011.81;5060093;28;20331;-58
2022/05/16 07:23:40;;;;;;;6.63;3.13;;;;;;;19.64;49.69;100013.00;5063061;28;20177;-56
2022/05/16 07:28:49;;;;;;;5.73;2.67;;;;;;;20.70;48.80;100021.25;5050506;28;20735;-57
2022/05/16 07:31:14;;;;;;;8.67;2.87;;;;;;;21.20;48.26;100010.16;5028443;28;20433;-58
2022/05/16 07:33:40;;;;;;;7.43;3.00;;;;;;;21.36;46.88;100016.44;5057351;28;20178;-61
2022/05/16 07:36:05;;;;;;;3.97;2.90;;;;;;;21.62;46.85;100021.69;5044764;28;20231;-60
2022/05/16 07:38:31;;;;;;;5.13;2.73;;;;;;;22.22;45.86;100030.34;5034999;28;20580;-59
2022/05/16 07:40:57;;;;;;;5.70;3.00;;;;;;;22.66;45.72;100027.47;5033881;28;20608;-60
2022/05/16 07:43:24;;;;;;;4.17;2.87;;;;;;;21.81;46.69;100027.66;5041921;28;20191;-66
2022/05/16 07:45:49;;;;;;;4.37;3.17;;;;;;;22.20;45.99;100027.91;5010036;28;20178;-61
2022/05/16 07:48:15;;;;;;;6.97;2.93;;;;;;;22.30;47.60;100032.16;5011128;28;20269;-60
2022/05/16 07:50:41;;;;;;;4.93;3.03;;;;;;;23.24;44.96;100032.66;5021747;28;20671;-60
2022/05/16 07:53:11;;;;;;;6.87;3.80;;;;;;;23.19;44.52;100029.72;5054568;28;20220;-59
2022/05/16 07:55:41;;;;;;;5.20;2.93;;;;;;;22.85;45.91;100035.97;5046373;28;20181;-61
2022/05/16 07:58:07;;;;;;;4.03;3.03;;;;;;;25.24;40.69;100031.19;5028694;28;20629;-60
2022/05/16 08:00:33;;;;;;;6.32;3.15;;;;;;;26.68;39.08;100040.28;5030152;28;20220;-60
2022/05/16 08:02:58;;;;;;;5.43;3.20;;;;;;;27.13;36.91;100043.47;5044784;28;20221;-65
2022/05/16 08:05:24;;;;;;;5.43;2.95;;;;;;;27.02;37.66;100044.81;5015615;28;20586;-61
2022/05/16 08:10:35;;;;;;;4.15;3.35;;;;;;;24.82;41.61;100038.69;5017955;28;20227;-63
2022/05/16 08:13:04;;;;;;;6.63;2.85;;;;;;;25.73;40.36;100045.63;5055643;28;20666;-61
2022/05/16 08:15:30;;;;;;;7.40;2.60;;;;;;;26.24;38.50;100042.94;5066784;28;20283;-61
2022/05/16 08:17:57;;;;;;;5.68;2.65;;;;;;;26.13;38.25;100042.63;5053400;28;20594;-62
2022/05/16 08:20:23;;;;;;;4.20;3.05;;;;;;;26.06;38.04;100048.66;5046141;28;20225;-61
2022/05/16 08:22:48;;;;;;;4.00;2.78;;;;;;;26.57;37.64;100052.97;5067554;28;20194;-62
2022/05/16 08:25:14;;;;;;;7.70;2.92;;;;;;;27.67;35.47;100060.44;5051730;28;20186;-62
2022/05/16 08:27:41;;;;;;;3.83;2.55;;;;;;;29.39;34.06;100066.28;5052439;28;20181;-61
2022/05/16 08:30:07;;;;;;;6.00;2.95;;;;;;;30.59;31.20;100070.97;5060133;28;20205;-62
2022/05/16 08:32:33;;;;;;;7.43;3.10;;;;;;;29.25;31.34;100061.00;5050764;28;20181;-62
2022/05/16 08:35:00;;;;;;;6.05;2.58;;;;;;;31.25;31.07;100061.78;5045288;28;20272;-65
2022/05/16 08:40:11;;;;;;;6.93;2.97;;;;;;;31.44;28.90;100067.91;5046294;28;20243;-62
2022/05/16 08:42:58;;;;;;;5.28;3.13;;;;;;;32.08;28.67;100065.69;5084119;28;20655;-62
2022/05/16 08:45:33;;;;;;;4.38;2.90;;;;;;;32.78;27.40;100074.84;5069940;28;20258;-63
2022/05/16 08:48:08;;;;;;;3.67;2.30;;;;;;;33.51;26.27;100079.06;5069360;28;20547;-63
2022/05/16 08:50:42;;;;;;;7.45;3.08;;;;;;;34.89;25.12;100085.19;5067492;28;20324;-61
2022/05/16 08:53:13;;;;;;;3.45;2.63;;;;;;;33.99;25.63;100077.88;5075831;28;20224;-68
2022/05/16 08:55:43;;;;;;;6.50;2.92;;;;;;;35.43;25.08;100089.09;5050141;28;20184;-60
2022/05/16 08:58:09;;;;;;;6.40;2.92;;;;;;;34.12;26.04;100076.75;5052019;28;20613;-61
2022/05/16 09:00:51;;;;;;;7.65;2.97;;;;;;;33.70;25.77;100071.69;5051800;28;20250;-61
2022/05/16 09:03:35;;;;;;;5.18;3.00;;;;;;;34.31;26.15;100079.19;5072948;28;20648;-61
2022/05/16 09:06:11;;;;;;;5.45;2.97;;;;;;;35.93;24.12;100084.59;5052379;28;20242;-72
2022/05/16 09:08:59;;;;;;;4.55;2.70;;;;;;;35.98;23.67;100084.63;5054097;28;20694;-61
2022/05/16 09:11:29;;;;;;;3.72;2.72;;;;;;;35.19;25.05;100084.81;5045150;28;20228;-62
2022/05/16 09:14:00;;;;;;;4.63;2.85;;;;;;;35.25;24.92;100079.50;5054094;28;20216;-62
2022/05/16 09:16:43;;;;;;;6.00;2.72;;;;;;;36.26;24.75;100078.19;5053612;28;20236;-62
2022/05/16 09:19:37;;;;;;;4.95;3.00;;;;;;;36.11;24.02;100078.03;5053796;28;20185;-62
2022/05/16 09:22:24;;;;;;;4.43;2.72;;;;;;;36.47;23.41;100063.09;5059128;28;20236;-61
2022/05/16 09:24:55;;;;;;;4.95;2.40;;;;;;;34.97;24.63;100068.75;5054015;28;20185;-62
2022/05/16 09:30:25;;;;;;;10.70;2.72;;;;;;;35.84;24.78;100076.97;5043515;28;20252;-61
2022/05/16 09:33:17;;;;;;;3.42;2.53;;;;;;;37.20;23.54;100083.09;5055035;28;20185;-61
2022/05/16 09:35:56;;;;;;;5.95;3.15;;;;;;;35.52;24.96;100077.72;5037415;28;20177;-60
2022/05/16 09:38:22;;;;;;;3.83;2.63;;;;;;;37.49;22.90;100085.38;5051269;28;20696;-61
2022/05/16 09:41:00;;;;;;;5.88;2.70;;;;;;;36.01;25.08;100087.63;5055620;28;20284;-61
2022/05/16 09:43:30;;;;;;;8.80;3.33;;;;;;;38.02;22.61;100087.09;5060797;28;20218;-62
2022/05/16 09:46:14;;;;;;;5.53;2.45;;;;;;;38.58;21.21;100087.09;5032506;28;20529;-62
2022/05/16 09:48:39;;;;;;;6.53;2.65;;;;;;;39.70;20.29;100086.97;5032113;28;20208;-61
2022/05/16 09:51:07;;;;;;;6.78;3.10;;;;;;;39.06;21.39;100085.91;5034723;28;20229;-62
2022/05/16 09:53:43;;;;;;;5.85;3.22;;;;;;;38.67;22.14;100079.28;5019859;28;20186;-60
2022/05/16 09:56:30;;;;;;;7.10;3.10;;;;;;;38.03;22.90;100084.16;5013188;28;20210;-65
2022/05/16 09:59:01;;;;;;;5.95;3.03;;;;;;;38.81;21.35;100082.22;5011996;28;20187;-67
2022/05/16 10:01:41;;;;;;;6.68;3.20;;;;;;;36.29;24.40;100074.97;5028377;28;20252;-75
2022/05/16 10:04:17;;;;;;;6.20;3.63;;;;;;;35.03;25.43;100075.78;5038553;28;20189;-62
2022/05/16 10:06:55;;;;;;;11.07;2.80;;;;;;;36.51;24.79;100074.91;5065090;28;20186;-62
2022/05/16 10:09:45;;;;;;;4.70;2.90;;;;;;;38.33;22.93;100085.25;5031791;28;20204;-62
2022/05/16 10:12:15;;;;;;;3.08;2.60;;;;;;;38.89;21.54;100088.94;5055513;28;20606;-61
2022/05/16 10:14:42;;;;;;;4.97;2.60;;;;;;;37.95;22.68;100084.69;5033056;28;20579;-62
2022/05/16 10:17:12;;;;;;;6.97;2.78;;;;;;;35.91;24.53;100087.53;5030865;28;20230;-61
2022/05/16 10:19:40;;;;;;;5.53;2.97;;;;;;;31.85;30.25;100085.84;5025542;28;20175;-62
2022/05/16 10:22:11;;;;;;;4.57;2.97;;;;;;;31.06;32.59;100083.81;5037876;28;20283;-61
2022/05/16 10:24:49;;;;;;;6.82;4.03;;;;;;;30.61;33.88;100083.22;5048823;28;20339;-61
2022/05/16 10:27:18;;;;;;;4.95;3.40;;;;;;;30.85;32.93;100085.03;5051127;28;20215;-62
2022/05/16 10:29:51;;;;;;;5.72;3.03;;;;;;;31.20;33.39;100076.56;5039949;28;20197;-62
2022/05/16 10:35:29;;;;;;;6.13;3.08;;;;;;;33.76;29.31;100078.75;5034759;28;20270;-68
2022/05/16 10:37:58;;;;;;;6.38;2.92;;;;;;;34.29;28.79;100062.63;5050876;28;20188;-62
2022/05/16 10:40:29;;;;;;;8.63;3.10;;;;;;;35.14;27.49;100059.84;5043712;28;20719;-63
2022/05/16 10:43:13;;;;;;;6.90;3.00;;;;;;;34.71;27.85;100051.53;5067541;28;20549;-62
2022/05/16 10:45:46;;;;;;;5.75;3.15;;;;;;;34.49;28.81;100054.16;5051144;28;20209;-60
2022/05/16 10:48:18;;;;;;;8.00;3.28;;;;;;;33.02;31.00;100058.03;5051946;28;20182;-61
2022/05/16 10:50:49;;;;;;;11.32;3.22;;;;;;;32.98;30.19;100050.53;5043904;28;20228;-65
2022/05/16 10:53:25;;;;;;;5.32;2.92;;;;;;;31.91;31.72;100046.09;5031069;28;20276;-61
2022/05/16 10:56:36;;;;;;;4.93;3.40;;;;;;;31.05;33.22;100052.97;5051506;28;20185;-60
2022/05/16 10:59:22;;;;;;;6.63;3.42;;;;;;;30.82;34.21;100044.84;5037280;28;20646;-62
2022/05/16 11:01:58;;;;;;;5.45;3.00;;;;;;;30.90;35.18;100045.38;5046954;28;21051;-61
2022/05/16 11:04:39;;;;;;;4.63;3.40;;;;;;;31.01;33.99;100045.66;5043897;28;20189;-62
2022/05/16 11:07:35;;;;;;;6.53;3.40;;;;;;;30.85;35.63;100047.03;5051573;28;20185;-61
2022/05/16 11:10:07;;;;;;;6.88;3.58;;;;;;;30.37;35.27;100053.78;5031948;28;20290;-62
2022/05/16 11:12:47;;;;;;;6.13;3.60;;;;;;;30.20;35.56;100058.78;5035042;28;20232;-61
2022/05/16 11:15:38;;;;;;;4.57;3.13;;;;;;;29.86;36.77;100048.34;5023110;28;20216;-61
2022/05/16 11:18:18;;;;;;;4.45;3.15;;;;;;;28.96;37.89;100049.88;5062231;28;20675;-67
2022/05/16 11:20:54;;;;;;;7.85;3.38;;;;;;;29.26;37.32;100041.44;5039650;28;20225;-68
2022/05/16 11:23:38;;;;;;;8.90;3.30;;;;;;;29.85;38.21;100030.81;5031691;28;20192;-59
2022/05/16 11:26:31;;;;;;;4.97;2.80;;;;;;;30.51;37.67;100030.63;5044823;28;20178;-64
2022/05/16 11:29:29;;;;;;;4.90;2.75;;;;;;;30.63;36.22;100028.88;5051463;28;20344;-60
2022/05/16 11:31:57;;;;;;;8.88;3.20;;;;;;;30.18;36.10;100029.00;5017935;28;20232;-67
2022/05/16 11:34:32;;;;;;;7.03;3.13;;;;;;;29.43;36.81;100019.81;5032393;28;20579;-65
2022/05/16 11:37:13;;;;;;;4.47;3.20;;;;;;;29.19;38.59;100034.50;5043361;28;20320;-66
2022/05/16 11:39:52;;;;;;;5.10;3.00;;;;;;;28.64;39.04;100031.13;5049971;28;20177;-61
2022/05/16 11:42:54;;;;;;;4.85;2.88;;;;;;;28.50;40.56;100037.44;5055833;28;20613;-60
2022/05/16 11:45:57;;;;;;;5.15;3.13;;;;;;;28.74;39.30;100043.97;5051354;28;20620;-59
2022/05/16 11:48:38;;;;;;;4.95;3.30;;;;;;;29.10;39.39;100045.34;5050814;28;20192;-58
2022/05/16 11:51:22;;;;;;;7.57;3.35;;;;;;;29.16;39.21;100048.97;5042352;28;21040;-59
2022/05/16 11:53:50;;;;;;;7.43;3.20;;;;;;;28.94;39.09;100048.44;5056150;28;20188;-58
2022/05/16 12:02:34;;;;;;;5.88;2.60;;;;;;;28.17;38.66;100032.94;5058376;28;20263;-62
2022/05/16 12:05:11;;;;;;;4.90;2.15;;;;;;;27.76;39.28;100036.47;5046381;28;20186;-63
2022/05/16 12:07:49;;;;;;;7.00;2.95;;;;;;;27.90;39.20;100030.22;5029212;28;20181;-63
2022/05/16 12:10:15;;;;;;;12.32;2.58;;;;;;;28.41;39.51;100038.66;5023892;28;20679;-62
2022/05/16 12:12:46;;;;;;;6.88;2.15;;;;;;;28.40;38.06;100035.19;5045475;28;20261;-62
2022/05/16 12:15:24;;;;;;;5.75;2.40;;;;;;;28.73;37.68;100030.94;5049526;28;20660;-61
2022/05/16 12:18:02;;;;;;;6.55;2.25;;;;;;;28.70;36.64;100029.50;5049956;28;20223;-61
2022/05/16 12:20:42;;;;;;;6.13;2.35;;;;;;;28.38;36.76;100031.13;5043435;28;20224;-62